小松飛行場の過去48時間の天気

小松飛行場 (Kanazawa/Komatsu)

現在時刻: 11/12 12:23 JST (11/12 03:23 UTC) 以下の時間は現地時間です。

過去48時間のMETAR気象情報
時間 風向 風速(m/s) 視程 気温(℃) 湿度(%) 気圧(hPa) 天気現象
12 12:00 6 10km以上 18 45 1019
12 11:00 6 10km以上 16 48 1019
12 10:00 北北西 5 10km以上 17 48 1019
12 09:00 不定 1 10km以上 17 55 1018
12 08:00 南東 2 10km以上 14 82 1018
12 07:00 5 10km以上 15 63 1016
12 06:00 不定 2 10km以上 13 88 1015
12 05:00 南東 2 10km以上 13 88 1014
12 04:00 南南西 2 10km以上 14 82 1014 弱いしゅう雨
12 03:00 北西 4 10km以上 16 63 1013
12 02:00 西北西 5 10km以上 16 63 1013
12 01:00 西北西 6 10km以上 16 63 1013
12 00:00 西 6 10km以上 15 77 1012
11 23:00 西 7 10km以上 16 77 1011 弱いしゅう雨
11 22:00 西南西 9 10km以上 16 77 1010 弱いしゅう雨
11 21:00 西 11 10km以上 16 72 1010
11 20:00 西 12 10km以上 17 63 1009
11 19:00 西 12 10km以上 15 77 1008 弱い雷雨
11 18:00 西南西 10 10km以上 17 59 1007
11 17:00 南西 10 5000m 16 59 1006 弱いしゅう雨
11 16:00 西南西 14 8000m 16 68 1006 弱い雷雨
11 15:00 南西 9 10km以上 19 46 1005
11 14:00 西南西 11 10km以上 17 68 1005 弱いしゅう雨
11 13:00 南南西 11 10km以上 20 43 1004
11 12:00 6 10km以上 19 49 1004
11 11:00 9 10km以上 20 43 1004 弱いしゅう雨
11 10:00 8 10km以上 19 43 1005
11 09:00 南南西 5 10km以上 18 45 1006
11 08:00 3 10km以上 17 48 1007
11 07:00 3 10km以上 14 55 1007
11 06:00 不定 1 10km以上 11 67 1008
11 05:00 南南東 3 10km以上 9 76 1009
11 04:00 2 10km以上 7 93 1009
11 03:00 不定 1 10km以上 8 81 1010
11 02:00 2 10km以上 7 87 1010
11 01:00 東南東 2 10km以上 8 81 1011
11 00:00 不定 1 10km以上 8 87 1011
10 23:00 2 10km以上 8 87 1012
10 22:00 不定 1 10km以上 9 81 1012
10 21:00 東南東 3 10km以上 9 81 1012
10 20:00 2 10km以上 10 82 1014
10 19:00 南南東 2 10km以上 11 76 1014
10 18:00 2 10km以上 12 67 1014
10 17:00 北東 2 10km以上 13 54 1014
10 16:00 2 10km以上 14 51 1015
10 15:00 3 10km以上 14 51 1015
10 14:00 4 10km以上 15 45 1015
10 13:00 4 10km以上 14 51 1016
RJNK 120300Z 01011KT 340V040 9999 FEW030 18/06 Q1019
RJNK 120200Z 35011KT 9999 FEW030 16/05 Q1019
RJNK 120100Z 34010KT 310V020 9999 FEW030 BKN045 17/06 Q1019
RJNK 120000Z VRB02KT 9999 FEW030 BKN045 17/08 Q1018
RJNK 112300Z 13003KT 9999 FEW030 SCT050 14/11 Q1018
RJNK 112200Z 01010KT 9999 FEW020 SCT050 15/08 Q1016
RJNK 112100Z VRB03KT 9999 FEW008 BKN030 BKN050 13/11 Q1015
RJNK 112000Z 14004KT 100V160 9999 FEW008 SCT020 BKN030 13/11 Q1014
RJNK 111900Z 20004KT 160V310 9999 -SHRA FEW008 SCT020 BKN030 14/11 Q1014
RJNK 111800Z 31007KT 270V330 9999 FEW008 SCT030 BKN050 16/09 Q1013
RJNK 111700Z 30009KT 9999 FEW008 SCT030 BKN050 16/09 Q1013
RJNK 111600Z 29011KT 9999 FEW008 SCT030 BKN050 16/09 Q1013
RJNK 111500Z 26011KT 9999 FEW008 SCT020 BKN030 FEW030CB 15/11 Q1012
RJNK 111400Z 26014KT 9999 -SHRA FEW008 SCT020 BKN030 SCT030CB 16/12 Q1011
RJNK 111300Z 25017KT 9999 -SHRA FEW008 SCT020 BKN030 SCT030CB 16/12 Q1010
RJNK 111200Z 26022KT 9999 FEW008 SCT020 BKN030 FEW030CB 16/11 Q1010
RJNK 111100Z 26023G33KT 9999 FEW008 SCT020 BKN030 17/10 Q1009 RETS
RJNK 111000Z 26023G33KT 9999 -TSRA FEW008 BKN020 BKN030CB 15/11 Q1008
RJNK 110900Z 24020G30KT 9999 FEW020 SCT030 FEW030CB 17/09 Q1007
RJNK 110800Z 22019G30KT 5000 -SHRA FEW008 SCT015 BKN020 FEW030CB 16/08 Q1006 RETS
RJNK 110700Z 25028KT 8000 -TSRA FEW008 BKN020 BKN030 FEW030CB 16/10 Q1006
RJNK 110600Z 22018G33KT 9999 FEW020 SCT030 FEW030CB BKN050 19/07 Q1005
RJNK 110500Z 25022G34KT 9999 -SHRA FEW008 BKN030 FEW030CB BKN050 17/11 Q1005 RETS
RJNK 110400Z 21022G32KT 9999 FEW008 SCT030 FEW030CB BKN050 20/07 Q1004
RJNK 110300Z 19012KT 9999 FEW008 SCT050 BKN080 19/08 Q1004
RJNK 110200Z 19017KT 160V220 9999 -SHRA FEW008 SCT030 FEW030CB BKN080 20/07 Q1004
RJNK 110100Z 18016KT 150V210 9999 FEW008 SCT030 FEW030CB BKN080 19/06 Q1005
RJNK 110000Z 20010KT 9999 FEW008 SCT080 BKN150 18/06 Q1006
RJNK 102300Z 19006KT 9999 FEW030 SCT150 BKN210 17/06 Q1007
RJNK 102200Z 18005KT 9999 FEW050 SCT150 BKN210 14/05 Q1007
RJNK 102100Z VRB02KT 9999 FEW050 SCT150 BKN/// 11/05 Q1008
RJNK 102000Z 16006KT 9999 FEW050 09/05 Q1009
RJNK 101900Z 10003KT 9999 FEW050 07/06 Q1009
RJNK 101800Z VRB02KT 9999 FEW050 SCT070 08/05 Q1010
RJNK 101700Z 19003KT 150V230 9999 FEW050 BKN/// 07/05 Q1010
RJNK 101600Z 12003KT 090V160 9999 FEW050 BKN/// 08/05 Q1011
RJNK 101500Z VRB01KT 9999 FEW050 BKN/// 08/06 Q1011
RJNK 101400Z 18003KT 110V220 9999 FEW050 BKN/// 08/06 Q1012
RJNK 101300Z VRB02KT 9999 FEW050 BKN/// 09/06 Q1012
RJNK 101200Z 12005KT 9999 FEW050 BKN/// 09/06 Q1012
RJNK 101100Z 18004KT 9999 FEW050 BKN/// 10/07 Q1014
RJNK 101000Z 15003KT 100V200 9999 FEW050 BKN/// 11/07 Q1014
RJNK 100900Z 09003KT 050V150 9999 FEW050 BKN/// 12/06 Q1014
RJNK 100800Z 04003KT 9999 FEW050 SCT230 BKN280 13/04 Q1014
RJNK 100700Z 35004KT 9999 FEW050 BKN280 14/04 Q1015
RJNK 100600Z 35006KT 310V020 9999 FEW050 BKN280 14/04 Q1015
RJNK 100500Z 01007KT 330V050 9999 FEW050 BKN280 15/03 Q1015
RJNK 100400Z 01007KT 320V050 9999 FEW030 SCT280 14/04 Q1016